Time;durP1;ratioP1;P1;durP2;ratioP2;P2;SDS_P1;SDS_P2;PMS_P1;PMS_P2;Temp;Humidity;BMP_temperature;BMP_pressure;BME280_temperature;BME280_humidity;BME280_pressure;Samples;Min_cycle;Max_cycle;Signal;HPM_P1;HPM_P2
2023/01/25 00:00:36;;;;;;;;;;;1.40;99.90;;;;;;4993596;28;19918;-81
2023/01/25 00:03:02;;;;;;;;;;;1.40;99.90;;;;;;4991592;28;19961;-80
2023/01/25 00:05:27;;;;;;;;;;;1.40;99.90;;;;;;4979289;28;19898;-81
2023/01/25 00:07:53;;;;;;;;;;;1.40;99.90;;;;;;4970576;28;19914;-81
2023/01/25 00:10:18;;;;;;;;;;;1.40;99.90;;;;;;4981265;28;20322;-81
2023/01/25 00:12:44;;;;;;;;;;;1.30;99.90;;;;;;4963223;28;20654;-79
2023/01/25 00:15:10;;;;;;;;;;;1.30;99.90;;;;;;4964232;28;19920;-80
2023/01/25 00:17:35;;;;;;;;;;;1.40;99.90;;;;;;4964766;28;20000;-80
2023/01/25 00:20:01;;;;;;;;;;;1.40;99.90;;;;;;4965018;28;19961;-82
2023/01/25 00:22:26;;;;;;;;;;;1.40;99.90;;;;;;4981289;28;19910;-81
2023/01/25 00:24:52;;;;;;;;;;;1.40;99.90;;;;;;4981154;28;19914;-82
2023/01/25 00:27:18;;;;;;;;;;;1.50;99.90;;;;;;4981644;28;19914;-81
2023/01/25 00:29:43;;;;;;;;;;;1.40;99.90;;;;;;4963677;28;19914;-82
2023/01/25 00:32:11;;;;;;;;;;;1.50;99.90;;;;;;4982193;28;19910;-81
2023/01/25 00:34:42;;;;;;;;;;;1.50;99.90;;;;;;4984969;28;19922;-82
2023/01/25 00:37:17;;;;;;;;;;;1.50;99.90;;;;;;4962845;28;19914;-81
2023/01/25 00:39:42;;;;;;;;;;;1.50;99.90;;;;;;4980782;28;19937;-82
2023/01/25 00:42:12;;;;;;;;;;;1.50;99.90;;;;;;4963259;28;19914;-79
2023/01/25 00:44:37;;;;;;;;;;;1.50;99.90;;;;;;4990320;28;19902;-80
2023/01/25 00:47:04;;;;;;;;;;;1.40;99.90;;;;;;4996262;28;19960;-81
2023/01/25 00:49:30;;;;;;;;;;;1.40;99.90;;;;;;4996556;28;19934;-81
2023/01/25 00:51:56;;;;;;;;;;;1.40;99.90;;;;;;4995962;28;19988;-81
2023/01/25 00:54:22;;;;;;;;;;;1.50;99.90;;;;;;4996515;28;20511;-81
2023/01/25 00:56:47;;;;;;;;;;;1.50;99.90;;;;;;4980174;28;19919;-81
2023/01/25 00:59:13;;;;;;;;;;;1.50;99.90;;;;;;4996452;28;19960;-81
2023/01/25 01:01:39;;;;;;;;;;;1.50;99.90;;;;;;4965745;28;20012;-81
2023/01/25 01:04:05;;;;;;;;;;;1.40;99.90;;;;;;4980223;28;19918;-81
2023/01/25 01:06:31;;;;;;;;;;;1.40;99.90;;;;;;4978281;28;19918;-81
2023/01/25 01:08:56;;;;;;;;;;;1.40;99.90;;;;;;4965014;28;20291;-81
2023/01/25 01:11:22;;;;;;;;;;;1.40;99.90;;;;;;4998270;28;19940;-81
2023/01/25 01:13:47;;;;;;;;;;;1.30;99.90;;;;;;4982804;28;19914;-79
2023/01/25 01:16:13;;;;;;;;;;;1.40;99.90;;;;;;4977632;28;19921;-80
2023/01/25 01:18:39;;;;;;;;;;;1.40;99.90;;;;;;4978718;28;19917;-80
2023/01/25 01:21:05;;;;;;;;;;;1.30;99.90;;;;;;4977773;28;19990;-79
2023/01/25 01:23:31;;;;;;;;;;;1.30;99.90;;;;;;4978399;28;19918;-80
2023/01/25 01:26:00;;;;;;;;;;;1.30;99.90;;;;;;4977436;28;20319;-79
2023/01/25 01:28:29;;;;;;;;;;;1.20;99.90;;;;;;4977899;28;20065;-79
2023/01/25 01:30:59;;;;;;;;;;;1.20;99.90;;;;;;4977777;28;19965;-79
2023/01/25 01:33:24;;;;;;;;;;;1.10;99.90;;;;;;4978834;28;19961;-80
2023/01/25 01:35:50;;;;;;;;;;;1.10;99.90;;;;;;4977290;28;19910;-80
2023/01/25 01:38:15;;;;;;;;;;;1.10;99.90;;;;;;4978972;28;20390;-80
2023/01/25 01:40:44;;;;;;;;;;;1.10;99.90;;;;;;4979188;28;19924;-80
2023/01/25 01:43:20;;;;;;;;;;;1.10;99.90;;;;;;4978813;28;19910;-79
2023/01/25 01:45:45;;;;;;;;;;;1.10;99.90;;;;;;4958684;29;19910;-81
2023/01/25 01:48:23;;;;;;;;;;;1.10;99.90;;;;;;4957885;29;19966;-81
2023/01/25 01:50:51;;;;;;;;;;;1.10;99.90;;;;;;4958977;29;20202;-81
2023/01/25 01:53:17;;;;;;;;;;;1.10;99.90;;;;;;4976065;28;20006;-81
2023/01/25 01:55:43;;;;;;;;;;;1.00;99.90;;;;;;4995065;28;19965;-80
2023/01/25 01:58:08;;;;;;;;;;;1.10;99.90;;;;;;4996701;28;19938;-81
2023/01/25 02:00:36;;;;;;;;;;;1.00;99.90;;;;;;4996764;28;19906;-81
2023/01/25 02:03:02;;;;;;;;;;;1.00;99.90;;;;;;4986065;28;19918;-81
2023/01/25 02:05:46;;;;;;;;;;;1.00;99.90;;;;;;4988878;28;19911;-81
2023/01/25 02:08:13;;;;;;;;;;;1.00;99.90;;;;;;4960652;28;19902;-81
2023/01/25 02:10:39;;;;;;;;;;;1.00;99.90;;;;;;4965910;28;19915;-81
2023/01/25 02:13:05;;;;;;;;;;;1.10;99.90;;;;;;4960769;28;20452;-82
2023/01/25 02:15:49;;;;;;;;;;;1.00;99.90;;;;;;4969990;28;19914;-82
2023/01/25 02:18:15;;;;;;;;;;;1.00;99.90;;;;;;4978880;28;20379;-82
2023/01/25 02:20:42;;;;;;;;;;;1.00;99.90;;;;;;4979016;28;20347;-82
2023/01/25 02:23:27;;;;;;;;;;;1.00;99.90;;;;;;4960380;28;19914;-81
2023/01/25 02:25:54;;;;;;;;;;;1.10;99.90;;;;;;4978731;28;19917;-81
2023/01/25 02:28:28;;;;;;;;;;;1.10;99.90;;;;;;4960670;28;19910;-81
2023/01/25 02:30:53;;;;;;;;;;;1.10;99.90;;;;;;4979034;28;19958;-80
2023/01/25 02:33:21;;;;;;;;;;;1.10;99.90;;;;;;4954898;28;19921;-81
2023/01/25 02:35:55;;;;;;;;;;;1.10;99.90;;;;;;4958173;28;20422;-81
2023/01/25 02:38:20;;;;;;;;;;;1.10;99.90;;;;;;4960171;28;19910;-81
2023/01/25 02:40:49;;;;;;;;;;;1.20;99.90;;;;;;4977868;28;20286;-80
2023/01/25 02:43:15;;;;;;;;;;;1.20;99.90;;;;;;4976944;28;19910;-81
2023/01/25 02:45:42;;;;;;;;;;;1.30;99.90;;;;;;4959496;28;19918;-81
2023/01/25 02:48:08;;;;;;;;;;;1.30;99.90;;;;;;4978879;28;19910;-81
2023/01/25 02:50:33;;;;;;;;;;;1.30;99.90;;;;;;4962029;28;19919;-80
2023/01/25 02:52:59;;;;;;;;;;;1.30;99.90;;;;;;4979444;28;19910;-81
2023/01/25 02:55:24;;;;;;;;;;;1.20;99.90;;;;;;4992769;28;19953;-81
2023/01/25 02:57:50;;;;;;;;;;;1.20;99.90;;;;;;4985874;28;19929;-81
2023/01/25 03:00:16;;;;;;;;;;;1.10;99.90;;;;;;4978112;28;20013;-81
2023/01/25 03:02:42;;;;;;;;;;;1.10;99.90;;;;;;4985814;28;19910;-80
2023/01/25 03:05:07;;;;;;;;;;;1.10;99.90;;;;;;4990163;28;19910;-80
2023/01/25 03:07:33;;;;;;;;;;;1.10;99.90;;;;;;4968141;28;19910;-80
2023/01/25 03:09:58;;;;;;;;;;;1.10;99.90;;;;;;4976970;28;19969;-81
2023/01/25 03:12:24;;;;;;;;;;;1.00;99.90;;;;;;4981940;28;19927;-80
2023/01/25 03:14:49;;;;;;;;;;;1.00;99.90;;;;;;4989783;28;19925;-80
2023/01/25 03:17:15;;;;;;;;;;;1.00;99.90;;;;;;4992080;28;19981;-80
2023/01/25 03:19:40;;;;;;;;;;;1.00;99.90;;;;;;4984265;28;19910;-81
2023/01/25 03:22:06;;;;;;;;;;;1.00;99.90;;;;;;4982003;28;20253;-79
2023/01/25 03:24:31;;;;;;;;;;;1.00;99.90;;;;;;4962690;28;19914;-79
2023/01/25 03:27:13;;;;;;;;;;;1.00;99.90;;;;;;4981209;28;20117;-80
2023/01/25 03:29:41;;;;;;;;;;;1.00;99.90;;;;;;4981146;28;19913;-80
2023/01/25 03:32:07;;;;;;;;;;;1.00;99.90;;;;;;4980578;28;20010;-80
2023/01/25 03:34:33;;;;;;;;;;;1.00;99.90;;;;;;4979046;28;19917;-80
2023/01/25 03:36:58;;;;;;;;;;;1.00;99.90;;;;;;4969642;28;19949;-80
2023/01/25 03:39:24;;;;;;;;;;;1.00;99.90;;;;;;4963945;28;19930;-82
2023/01/25 03:41:49;;;;;;;;;;;1.00;99.90;;;;;;4964722;28;19915;-80
2023/01/25 03:44:15;;;;;;;;;;;1.00;99.90;;;;;;4964066;28;20030;-80
2023/01/25 03:46:40;;;;;;;;;;;1.00;99.90;;;;;;4966861;28;19965;-79
2023/01/25 03:49:07;;;;;;;;;;;1.00;99.90;;;;;;4989155;28;19928;-78
2023/01/25 03:51:33;;;;;;;;;;;1.00;99.90;;;;;;4988809;28;20267;-79
2023/01/25 03:53:59;;;;;;;;;;;1.00;99.90;;;;;;4977291;28;19910;-79
2023/01/25 03:56:25;;;;;;;;;;;1.00;99.90;;;;;;4996076;28;19921;-79
2023/01/25 03:58:50;;;;;;;;;;;1.00;99.90;;;;;;4997000;28;19911;-80
2023/01/25 04:01:16;;;;;;;;;;;0.90;99.90;;;;;;4980995;28;19914;-80
2023/01/25 04:03:41;;;;;;;;;;;1.00;99.90;;;;;;5003090;28;19965;-80
2023/01/25 04:06:07;;;;;;;;;;;1.00;99.90;;;;;;4995392;28;19918;-81
2023/01/25 04:08:32;;;;;;;;;;;1.00;99.90;;;;;;4995550;28;19910;-79
2023/01/25 04:11:16;;;;;;;;;;;1.00;99.90;;;;;;4985721;28;20030;-81
2023/01/25 04:13:41;;;;;;;;;;;1.00;99.90;;;;;;4981744;28;19914;-82
2023/01/25 04:16:08;;;;;;;;;;;1.00;99.90;;;;;;4980712;28;19914;-81
2023/01/25 04:18:34;;;;;;;;;;;1.00;99.90;;;;;;4981124;28;19954;-80
2023/01/25 04:20:59;;;;;;;;;;;1.00;99.90;;;;;;4981766;28;19921;-79
2023/01/25 04:23:25;;;;;;;;;;;1.00;99.90;;;;;;4986325;28;19921;-80
2023/01/25 04:25:51;;;;;;;;;;;1.00;99.90;;;;;;4984709;28;20376;-79
2023/01/25 04:28:16;;;;;;;;;;;0.90;99.90;;;;;;4982898;28;19914;-80
2023/01/25 04:30:42;;;;;;;;;;;0.90;99.90;;;;;;4986666;28;19921;-80
2023/01/25 04:33:07;;;;;;;;;;;0.90;99.90;;;;;;4998358;28;19929;-80
2023/01/25 04:35:33;;;;;;;;;;;0.90;99.90;;;;;;4998716;28;19914;-80
2023/01/25 04:37:59;;;;;;;;;;;0.90;99.90;;;;;;4982448;28;19915;-80
2023/01/25 04:40:24;;;;;;;;;;;0.90;99.90;;;;;;4980358;28;19933;-81
2023/01/25 04:42:50;;;;;;;;;;;0.90;99.90;;;;;;4975409;28;19911;-80
2023/01/25 04:45:15;;;;;;;;;;;0.90;99.90;;;;;;4977771;28;19926;-80
2023/01/25 04:47:41;;;;;;;;;;;0.90;99.90;;;;;;4987266;28;19910;-79
2023/01/25 04:50:07;;;;;;;;;;;0.90;99.90;;;;;;4964972;28;19914;-81
2023/01/25 04:52:32;;;;;;;;;;;0.90;99.90;;;;;;4989434;28;19945;-79
2023/01/25 04:54:58;;;;;;;;;;;0.90;99.90;;;;;;4981760;28;19910;-80
2023/01/25 04:57:23;;;;;;;;;;;0.90;99.90;;;;;;4967103;28;19918;-80
2023/01/25 04:59:49;;;;;;;;;;;0.90;99.90;;;;;;4988044;28;19962;-79
2023/01/25 05:02:14;;;;;;;;;;;1.00;99.90;;;;;;4976672;28;19914;-79
2023/01/25 05:04:40;;;;;;;;;;;1.00;99.90;;;;;;4986344;28;19921;-78
2023/01/25 05:07:05;;;;;;;;;;;1.00;99.90;;;;;;4968286;28;19992;-77
2023/01/25 05:09:31;;;;;;;;;;;0.90;99.90;;;;;;4960141;28;19914;-79
2023/01/25 05:11:56;;;;;;;;;;;0.90;99.90;;;;;;4976717;28;19917;-78
2023/01/25 05:14:22;;;;;;;;;;;0.90;99.90;;;;;;4977065;28;19911;-81
2023/01/25 05:16:47;;;;;;;;;;;0.90;99.90;;;;;;4982386;28;19914;-78
2023/01/25 05:19:13;;;;;;;;;;;0.90;99.90;;;;;;4983009;28;19925;-78
2023/01/25 05:21:57;;;;;;;;;;;0.90;99.90;;;;;;4976766;28;19937;-78
2023/01/25 05:24:26;;;;;;;;;;;0.90;99.90;;;;;;4959758;28;19914;-78
2023/01/25 05:27:02;;;;;;;;;;;0.90;99.90;;;;;;4976456;28;19969;-78
2023/01/25 05:29:28;;;;;;;;;;;0.90;99.90;;;;;;4976319;28;20002;-80
2023/01/25 05:31:53;;;;;;;;;;;0.90;99.90;;;;;;4985007;28;19914;-80
2023/01/25 05:34:19;;;;;;;;;;;0.90;99.90;;;;;;4990116;28;20022;-82
2023/01/25 05:36:44;;;;;;;;;;;0.90;99.90;;;;;;4997084;28;19933;-82
2023/01/25 05:39:10;;;;;;;;;;;0.90;99.90;;;;;;4994181;28;19914;-81
2023/01/25 05:41:35;;;;;;;;;;;0.90;99.90;;;;;;4978619;28;19910;-80
2023/01/25 05:44:01;;;;;;;;;;;0.90;99.90;;;;;;4980497;28;19902;-81
2023/01/25 05:46:27;;;;;;;;;;;1.00;99.90;;;;;;4997617;28;19902;-81
2023/01/25 05:48:52;;;;;;;;;;;0.90;99.90;;;;;;4997803;28;19902;-82
2023/01/25 05:51:18;;;;;;;;;;;0.90;99.90;;;;;;4997996;28;19913;-80
2023/01/25 05:53:43;;;;;;;;;;;0.90;99.90;;;;;;4997559;28;19910;-81
2023/01/25 05:56:09;;;;;;;;;;;0.80;99.90;;;;;;4998050;28;19903;-81
2023/01/25 05:58:35;;;;;;;;;;;0.80;99.90;;;;;;4987528;28;19910;-81
2023/01/25 06:01:01;;;;;;;;;;;0.80;99.90;;;;;;5006566;28;19914;-83
2023/01/25 06:03:27;;;;;;;;;;;0.80;99.90;;;;;;5005719;28;19917;-81
2023/01/25 06:05:55;;;;;;;;;;;0.80;99.90;;;;;;5005725;28;19914;-81
2023/01/25 06:08:21;;;;;;;;;;;0.80;99.90;;;;;;4999963;28;19918;-82
2023/01/25 06:10:46;;;;;;;;;;;0.90;99.90;;;;;;4986068;28;19921;-81
2023/01/25 06:13:12;;;;;;;;;;;1.00;99.90;;;;;;4986611;28;20065;-82
2023/01/25 06:15:37;;;;;;;;;;;1.00;99.90;;;;;;4985853;28;19910;-82
2023/01/25 06:18:03;;;;;;;;;;;1.00;99.90;;;;;;4985384;28;19910;-82
2023/01/25 06:20:28;;;;;;;;;;;1.00;99.90;;;;;;4966701;29;19920;-81
2023/01/25 06:22:54;;;;;;;;;;;1.00;99.90;;;;;;4965661;29;19946;-83
2023/01/25 06:25:19;;;;;;;;;;;1.00;99.90;;;;;;4964284;28;19946;-83
2023/01/25 06:27:45;;;;;;;;;;;1.00;99.90;;;;;;4967368;29;19921;-81
2023/01/25 06:30:10;;;;;;;;;;;1.00;99.90;;;;;;4982786;28;19914;-84
2023/01/25 06:32:36;;;;;;;;;;;1.00;99.90;;;;;;4994047;28;19898;-82
2023/01/25 06:43:47;;;;;;;;;;;0.90;99.90;;;;;;5028254;28;19925;-83
2023/01/25 06:49:10;;;;;;;;;;;0.80;99.90;;;;;;5026901;28;19944;-80
2023/01/25 06:51:36;;;;;;;;;;;0.80;99.90;;;;;;5019459;28;19933;-80
2023/01/25 06:54:05;;;;;;;;;;;0.80;99.90;;;;;;5011008;28;19918;-79
2023/01/25 06:56:31;;;;;;;;;;;0.80;99.90;;;;;;5039924;28;19901;-79
2023/01/25 06:58:57;;;;;;;;;;;0.80;99.90;;;;;;5039933;28;19918;-79
2023/01/25 07:01:26;;;;;;;;;;;0.90;99.90;;;;;;5040181;28;19996;-80
2023/01/25 07:03:55;;;;;;;;;;;0.90;99.90;;;;;;5021966;28;19915;-80
2023/01/25 07:06:22;;;;;;;;;;;0.90;99.90;;;;;;5040469;28;19901;-80
2023/01/25 07:08:47;;;;;;;;;;;0.90;99.90;;;;;;5039803;28;19917;-80
2023/01/25 07:11:13;;;;;;;;;;;0.90;99.90;;;;;;5035088;28;19910;-81
2023/01/25 07:13:42;;;;;;;;;;;0.80;99.90;;;;;;5017792;28;19990;-80
2023/01/25 07:16:10;;;;;;;;;;;0.80;99.90;;;;;;5020610;28;19933;-80
2023/01/25 07:18:36;;;;;;;;;;;0.80;99.90;;;;;;5038525;28;19909;-81
2023/01/25 07:21:09;;;;;;;;;;;0.90;99.90;;;;;;5031709;28;20327;-80
2023/01/25 07:23:36;;;;;;;;;;;0.90;99.90;;;;;;5014013;28;19964;-80
2023/01/25 07:26:03;;;;;;;;;;;0.90;99.90;;;;;;5033427;28;19925;-79
2023/01/25 07:28:30;;;;;;;;;;;0.90;99.90;;;;;;5034473;28;20382;-79
2023/01/25 07:30:55;;;;;;;;;;;0.90;99.90;;;;;;5033571;28;19909;-80
2023/01/25 07:33:21;;;;;;;;;;;0.90;99.90;;;;;;5008227;28;19953;-80
2023/01/25 07:35:49;;;;;;;;;;;0.90;99.90;;;;;;5013794;28;19989;-81
2023/01/25 07:38:15;;;;;;;;;;;1.00;99.90;;;;;;5011469;28;19914;-80
2023/01/25 07:40:41;;;;;;;;;;;1.00;99.90;;;;;;5020540;28;19913;-82
2023/01/25 07:43:07;;;;;;;;;;;1.00;99.90;;;;;;4996318;28;19914;-80
2023/01/25 07:45:32;;;;;;;;;;;1.00;99.90;;;;;;4994094;28;19978;-80
2023/01/25 07:47:58;;;;;;;;;;;1.00;99.90;;;;;;4996229;28;19913;-81
2023/01/25 07:50:27;;;;;;;;;;;1.00;99.90;;;;;;4993644;28;19914;-81
2023/01/25 07:52:53;;;;;;;;;;;1.00;99.90;;;;;;5010531;28;19925;-81
2023/01/25 07:55:19;;;;;;;;;;;1.00;99.90;;;;;;4993835;28;19909;-80
2023/01/25 07:57:45;;;;;;;;;;;0.90;99.90;;;;;;4996856;28;19933;-81
2023/01/25 08:00:11;;;;;;;;;;;0.90;99.90;;;;;;5000005;28;19929;-82
2023/01/25 08:02:37;;;;;;;;;;;1.00;99.90;;;;;;4993002;28;19961;-82
2023/01/25 08:05:03;;;;;;;;;;;0.90;99.90;;;;;;4991855;28;19917;-81
2023/01/25 08:07:28;;;;;;;;;;;1.00;99.90;;;;;;4990454;28;20379;-79
2023/01/25 08:09:54;;;;;;;;;;;1.00;99.90;;;;;;4987909;28;19909;-80
2023/01/25 08:12:20;;;;;;;;;;;1.00;99.90;;;;;;5010148;28;20347;-81
2023/01/25 08:14:48;;;;;;;;;;;1.00;99.90;;;;;;5009737;28;19981;-79
2023/01/25 08:17:14;;;;;;;;;;;1.10;99.90;;;;;;5011767;28;19965;-80
2023/01/25 08:19:39;;;;;;;;;;;1.10;99.90;;;;;;5016281;28;19933;-79
2023/01/25 08:22:06;;;;;;;;;;;1.10;99.90;;;;;;5014350;28;20348;-79
2023/01/25 08:24:32;;;;;;;;;;;1.10;99.90;;;;;;4997093;28;19926;-80
2023/01/25 08:26:57;;;;;;;;;;;1.10;99.90;;;;;;5017488;28;19966;-80
2023/01/25 08:29:23;;;;;;;;;;;1.10;99.90;;;;;;5014225;28;19922;-81
2023/01/25 08:31:49;;;;;;;;;;;1.10;99.90;;;;;;5000488;28;19915;-80
2023/01/25 08:34:14;;;;;;;;;;;1.10;99.90;;;;;;4998961;28;20008;-80
2023/01/25 08:36:40;;;;;;;;;;;1.10;99.90;;;;;;5012006;28;19921;-78
2023/01/25 08:39:06;;;;;;;;;;;1.20;99.90;;;;;;5012361;28;19909;-80
2023/01/25 08:41:33;;;;;;;;;;;1.20;99.90;;;;;;5010978;28;19929;-80
2023/01/25 08:43:58;;;;;;;;;;;1.10;99.90;;;;;;4993201;28;19938;-80
2023/01/25 08:46:25;;;;;;;;;;;1.20;99.90;;;;;;5004849;28;20320;-79
2023/01/25 08:48:55;;;;;;;;;;;1.10;99.90;;;;;;5013365;28;19925;-81
2023/01/25 08:51:21;;;;;;;;;;;1.10;99.90;;;;;;5038216;28;20022;-80
2023/01/25 08:53:47;;;;;;;;;;;1.10;99.90;;;;;;5029496;28;19910;-80
2023/01/25 08:56:13;;;;;;;;;;;1.10;99.90;;;;;;5011327;28;19953;-82
2023/01/25 08:58:40;;;;;;;;;;;1.00;99.90;;;;;;5007881;28;19914;-82
2023/01/25 09:01:06;;;;;;;;;;;1.00;99.90;;;;;;4982740;28;20266;-79
2023/01/25 09:03:36;;;;;;;;;;;1.00;99.90;;;;;;4991997;28;20343;-79
2023/01/25 09:06:02;;;;;;;;;;;1.00;99.90;;;;;;4998075;28;19909;-79
2023/01/25 09:08:27;;;;;;;;;;;1.10;99.90;;;;;;4979701;28;20333;-78
2023/01/25 09:10:53;;;;;;;;;;;1.10;99.90;;;;;;4997379;28;19910;-79
2023/01/25 09:13:18;;;;;;;;;;;1.20;99.90;;;;;;4997578;28;20008;-77
2023/01/25 09:15:44;;;;;;;;;;;1.30;99.90;;;;;;4998088;28;19917;-78
2023/01/25 09:18:09;;;;;;;;;;;1.30;99.90;;;;;;4999058;28;19910;-78
2023/01/25 09:20:37;;;;;;;;;;;1.20;99.90;;;;;;4997347;28;20393;-79
2023/01/25 09:23:02;;;;;;;;;;;1.20;99.90;;;;;;5005011;28;19941;-79
2023/01/25 09:25:28;;;;;;;;;;;1.20;99.90;;;;;;5017485;28;19922;-79
2023/01/25 09:27:53;;;;;;;;;;;1.20;99.90;;;;;;5004889;28;19914;-78
2023/01/25 09:30:19;;;;;;;;;;;1.30;99.90;;;;;;5009888;28;19913;-79
2023/01/25 09:32:47;;;;;;;;;;;1.20;99.90;;;;;;5011417;28;19921;-79
2023/01/25 09:35:12;;;;;;;;;;;1.20;99.90;;;;;;5006567;28;19914;-78
2023/01/25 09:37:40;;;;;;;;;;;1.20;99.90;;;;;;5008421;28;20278;-78
2023/01/25 09:40:16;;;;;;;;;;;1.30;99.90;;;;;;5016380;28;19921;-79
2023/01/25 09:42:48;;;;;;;;;;;1.30;99.90;;;;;;5008209;28;19990;-78
2023/01/25 09:45:22;;;;;;;;;;;1.30;99.90;;;;;;4979519;28;19918;-81
2023/01/25 09:47:48;;;;;;;;;;;1.20;99.90;;;;;;4981483;28;19918;-79
2023/01/25 09:50:30;;;;;;;;;;;1.20;99.90;;;;;;4985882;28;19924;-78
2023/01/25 09:53:06;;;;;;;;;;;1.20;99.90;;;;;;4990750;28;19938;-78
2023/01/25 09:55:32;;;;;;;;;;;1.20;99.90;;;;;;4985654;28;19964;-78
2023/01/25 09:57:59;;;;;;;;;;;1.20;99.90;;;;;;5015633;28;19917;-78
2023/01/25 10:00:24;;;;;;;;;;;1.20;99.90;;;;;;5018403;28;19909;-78
2023/01/25 10:02:56;;;;;;;;;;;1.20;99.90;;;;;;5014496;28;20375;-78
2023/01/25 10:05:24;;;;;;;;;;;1.30;99.90;;;;;;5000272;28;19924;-78
2023/01/25 10:07:50;;;;;;;;;;;1.30;99.90;;;;;;5011887;28;20311;-78
2023/01/25 10:10:18;;;;;;;;;;;1.40;99.90;;;;;;4984273;28;20008;-79
2023/01/25 10:12:44;;;;;;;;;;;1.30;99.90;;;;;;5010833;28;19910;-78
2023/01/25 10:15:20;;;;;;;;;;;1.30;99.90;;;;;;5003558;28;20008;-79
2023/01/25 10:17:57;;;;;;;;;;;1.30;99.90;;;;;;5019195;28;19968;-80
2023/01/25 10:20:27;;;;;;;;;;;1.20;99.90;;;;;;5004533;28;19921;-79
2023/01/25 10:23:06;;;;;;;;;;;1.20;99.90;;;;;;4986031;28;19918;-78
2023/01/25 10:25:41;;;;;;;;;;;1.30;99.90;;;;;;4977613;28;20356;-78
2023/01/25 10:28:13;;;;;;;;;;;1.30;99.90;;;;;;4992178;28;20273;-79
2023/01/25 10:30:49;;;;;;;;;;;1.20;99.90;;;;;;4996072;28;19910;-78
2023/01/25 10:33:16;;;;;;;;;;;1.20;99.90;;;;;;4997997;28;19910;-77
2023/01/25 10:35:43;;;;;;;;;;;1.20;99.90;;;;;;5005772;28;20019;-79
2023/01/25 10:38:32;;;;;;;;;;;1.20;99.90;;;;;;4980935;28;19916;-79
2023/01/25 10:41:16;;;;;;;;;;;1.30;99.90;;;;;;5002841;28;20338;-79
2023/01/25 10:43:42;;;;;;;;;;;1.30;99.90;;;;;;5017140;28;19924;-79
2023/01/25 10:46:17;;;;;;;;;;;1.30;99.90;;;;;;5001059;28;20351;-79
2023/01/25 10:48:42;;;;;;;;;;;1.20;99.90;;;;;;5011541;28;20323;-80
2023/01/25 10:51:08;;;;;;;;;;;1.10;99.90;;;;;;4998450;28;19906;-80
2023/01/25 10:53:34;;;;;;;;;;;1.10;99.90;;;;;;5001635;28;19950;-79
2023/01/25 10:56:00;;;;;;;;;;;1.00;99.90;;;;;;5010760;28;19973;-78
2023/01/25 10:58:29;;;;;;;;;;;1.00;99.90;;;;;;5000086;28;19952;-78
2023/01/25 11:00:54;;;;;;;;;;;1.00;99.90;;;;;;5009411;28;19977;-78
2023/01/25 11:03:20;;;;;;;;;;;1.10;99.90;;;;;;4981450;28;19929;-78
2023/01/25 11:05:54;;;;;;;;;;;1.10;99.90;;;;;;4992019;28;19952;-79
2023/01/25 11:08:22;;;;;;;;;;;1.20;99.90;;;;;;4999721;28;19920;-77
2023/01/25 11:10:48;;;;;;;;;;;1.30;99.90;;;;;;4996412;28;19921;-79
2023/01/25 11:13:14;;;;;;;;;;;1.20;99.90;;;;;;4990917;28;20008;-78
2023/01/25 11:15:48;;;;;;;;;;;1.20;99.90;;;;;;4997970;28;19957;-77
2023/01/25 11:18:24;;;;;;;;;;;1.20;99.90;;;;;;4980630;28;19910;-78
2023/01/25 11:21:10;;;;;;;;;;;1.20;99.90;;;;;;5017174;28;19914;-77
2023/01/25 11:23:35;;;;;;;;;;;1.20;99.90;;;;;;5020010;28;20024;-78
2023/01/25 11:26:12;;;;;;;;;;;1.20;99.90;;;;;;5021517;28;19910;-78
2023/01/25 11:28:38;;;;;;;;;;;1.20;99.90;;;;;;5017961;28;20341;-80
2023/01/25 11:31:07;;;;;;;;;;;1.30;99.90;;;;;;5027454;28;19997;-77
2023/01/25 11:33:32;;;;;;;;;;;1.40;99.90;;;;;;5010612;28;19910;-77
2023/01/25 11:36:13;;;;;;;;;;;1.40;99.90;;;;;;5025077;28;19915;-78
2023/01/25 11:38:42;;;;;;;;;;;1.40;99.90;;;;;;5030157;28;19916;-78
2023/01/25 11:41:11;;;;;;;;;;;1.30;99.90;;;;;;5029125;28;19919;-79
2023/01/25 11:43:45;;;;;;;;;;;1.30;99.90;;;;;;5001975;28;19917;-79
2023/01/25 11:46:20;;;;;;;;;;;1.30;99.90;;;;;;5019573;28;20611;-78
2023/01/25 11:48:56;;;;;;;;;;;1.30;99.90;;;;;;5018102;28;19957;-82
2023/01/25 11:51:28;;;;;;;;;;;1.30;99.90;;;;;;5019840;28;19910;-81
2023/01/25 11:54:02;;;;;;;;;;;1.30;99.90;;;;;;5014177;28;19945;-80
2023/01/25 11:56:46;;;;;;;;;;;1.30;99.90;;;;;;4979290;28;19952;-80
2023/01/25 11:59:30;;;;;;;;;;;1.30;99.90;;;;;;4980534;28;19910;-79
2023/01/25 12:02:09;;;;;;;;;;;1.40;99.90;;;;;;4980322;28;20258;-81
2023/01/25 12:04:54;;;;;;;;;;;1.30;99.90;;;;;;4997675;28;19917;-80
2023/01/25 12:07:22;;;;;;;;;;;1.30;99.90;;;;;;4988246;28;19953;-78
2023/01/25 12:09:56;;;;;;;;;;;1.30;99.90;;;;;;5008209;28;19917;-79
2023/01/25 12:12:33;;;;;;;;;;;1.30;99.90;;;;;;4991157;28;19922;-80
2023/01/25 12:15:11;;;;;;;;;;;1.40;99.90;;;;;;5011136;28;19910;-81
2023/01/25 12:17:46;;;;;;;;;;;1.30;99.90;;;;;;5021424;28;19913;-80
2023/01/25 12:20:29;;;;;;;;;;;1.40;99.90;;;;;;5021854;28;19949;-79
2023/01/25 12:22:54;;;;;;;;;;;1.40;99.90;;;;;;5020598;28;19936;-80
2023/01/25 12:25:28;;;;;;;;;;;1.40;99.90;;;;;;4999933;28;19913;-80
2023/01/25 12:28:09;;;;;;;;;;;1.30;99.90;;;;;;5005386;28;20065;-79
2023/01/25 12:30:47;;;;;;;;;;;1.30;99.90;;;;;;5021531;28;19914;-80
2023/01/25 12:33:18;;;;;;;;;;;1.40;99.90;;;;;;5000517;28;19929;-79
2023/01/25 12:35:48;;;;;;;;;;;1.30;99.90;;;;;;4999770;28;19910;-78
2023/01/25 12:38:21;;;;;;;;;;;1.30;99.90;;;;;;5002991;28;19910;-79
2023/01/25 12:40:53;;;;;;;;;;;1.30;99.90;;;;;;5012881;28;19918;-80
2023/01/25 12:43:51;;;;;;;;;;;1.30;99.90;;;;;;5003617;28;19910;-80
2023/01/25 12:46:22;;;;;;;;;;;1.30;99.90;;;;;;4955747;28;19918;-79
2023/01/25 12:48:51;;;;;;;;;;;1.30;99.90;;;;;;4997482;28;19917;-79
2023/01/25 12:51:17;;;;;;;;;;;1.30;99.90;;;;;;4998396;28;19909;-77
2023/01/25 12:53:46;;;;;;;;;;;1.20;99.90;;;;;;4993454;28;19914;-80
2023/01/25 12:56:30;;;;;;;;;;;1.20;99.90;;;;;;5003162;28;19910;-81
2023/01/25 12:58:59;;;;;;;;;;;1.20;99.90;;;;;;5004541;28;19920;-80
2023/01/25 13:01:39;;;;;;;;;;;1.20;99.90;;;;;;4990406;28;19973;-79
2023/01/25 13:04:20;;;;;;;;;;;1.20;99.90;;;;;;5001314;28;19914;-80
2023/01/25 13:06:56;;;;;;;;;;;1.20;99.90;;;;;;5010285;28;19926;-80
2023/01/25 13:09:40;;;;;;;;;;;1.20;99.90;;;;;;5001800;28;20058;-79
2023/01/25 13:12:09;;;;;;;;;;;1.30;99.90;;;;;;4984471;28;19993;-79
2023/01/25 13:14:36;;;;;;;;;;;1.20;99.90;;;;;;4995793;28;19914;-79
2023/01/25 13:17:11;;;;;;;;;;;1.20;99.90;;;;;;5001896;28;19973;-81
2023/01/25 13:19:36;;;;;;;;;;;1.10;99.90;;;;;;5001900;28;20318;-82
2023/01/25 13:22:02;;;;;;;;;;;1.20;99.90;;;;;;5001501;28;19913;-82
2023/01/25 13:24:28;;;;;;;;;;;1.20;99.90;;;;;;5000967;28;19937;-81
2023/01/25 13:26:54;;;;;;;;;;;1.20;99.90;;;;;;5001837;28;19937;-81
2023/01/25 13:29:34;;;;;;;;;;;1.20;99.90;;;;;;5004871;28;19985;-81
2023/01/25 13:32:01;;;;;;;;;;;1.30;99.90;;;;;;5004255;28;19981;-80
2023/01/25 13:34:38;;;;;;;;;;;1.30;99.90;;;;;;5005729;28;19918;-82
2023/01/25 13:37:16;;;;;;;;;;;1.30;99.90;;;;;;4963684;28;19939;-82
2023/01/25 13:39:54;;;;;;;;;;;1.20;99.90;;;;;;4987037;28;19910;-81
2023/01/25 13:42:20;;;;;;;;;;;1.10;99.90;;;;;;5002650;28;19918;-81
2023/01/25 13:44:48;;;;;;;;;;;1.10;99.90;;;;;;4983899;28;19909;-82
2023/01/25 13:47:16;;;;;;;;;;;1.10;99.90;;;;;;5002638;28;19918;-81
2023/01/25 13:49:45;;;;;;;;;;;1.20;99.90;;;;;;4983493;28;19910;-82
2023/01/25 13:52:15;;;;;;;;;;;1.30;99.90;;;;;;5019346;28;20263;-80
2023/01/25 13:54:46;;;;;;;;;;;1.40;99.90;;;;;;5020240;28;20200;-81
2023/01/25 13:57:13;;;;;;;;;;;1.40;99.90;;;;;;5003174;28;19910;-82
2023/01/25 13:59:38;;;;;;;;;;;1.40;99.90;;;;;;5004353;28;19917;-81
2023/01/25 14:02:24;;;;;;;;;;;1.50;99.90;;;;;;5026185;28;19906;-82
2023/01/25 14:04:50;;;;;;;;;;;1.50;99.90;;;;;;4990067;28;19973;-81
2023/01/25 14:07:17;;;;;;;;;;;1.50;99.90;;;;;;5001340;28;19917;-80
2023/01/25 14:09:43;;;;;;;;;;;1.50;99.90;;;;;;5008544;28;19996;-81
2023/01/25 14:12:09;;;;;;;;;;;1.40;99.90;;;;;;4989054;28;20349;-81
2023/01/25 14:14:35;;;;;;;;;;;1.30;99.90;;;;;;4982062;28;19910;-80
2023/01/25 14:17:02;;;;;;;;;;;1.30;99.90;;;;;;4999821;28;19916;-81
2023/01/25 14:19:28;;;;;;;;;;;1.20;99.90;;;;;;5000327;28;19910;-80
2023/01/25 14:22:13;;;;;;;;;;;1.20;99.90;;;;;;4980905;28;19994;-80
2023/01/25 14:24:38;;;;;;;;;;;1.10;99.90;;;;;;4970624;28;19910;-80
2023/01/25 14:27:04;;;;;;;;;;;1.20;99.90;;;;;;5022958;28;20297;-81
2023/01/25 14:29:31;;;;;;;;;;;1.20;99.90;;;;;;5004712;28;19909;-81
2023/01/25 14:31:56;;;;;;;;;;;1.20;99.90;;;;;;5000989;28;19949;-81
2023/01/25 14:34:24;;;;;;;;;;;1.10;99.90;;;;;;4994728;28;19929;-81
2023/01/25 14:37:03;;;;;;;;;;;1.10;99.90;;;;;;5016046;28;19995;-81
2023/01/25 14:39:29;;;;;;;;;;;1.00;99.90;;;;;;5012819;28;19910;-81
2023/01/25 14:41:55;;;;;;;;;;;1.00;99.90;;;;;;5019369;28;19924;-82
2023/01/25 14:44:21;;;;;;;;;;;0.90;99.90;;;;;;5019825;28;20009;-81
2023/01/25 14:46:47;;;;;;;;;;;0.80;99.90;;;;;;5022095;28;19917;-80
2023/01/25 14:49:12;;;;;;;;;;;0.80;99.90;;;;;;5018533;28;19909;-82